Time;durP1;ratioP1;P1;durP2;ratioP2;P2;SDS_P1;SDS_P2;PMS_P1;PMS_P2;Temp;Humidity;BMP_temperature;BMP_pressure;BME280_temperature;BME280_humidity;BME280_pressure;Samples;Min_cycle;Max_cycle;Signal;HPM_P1;HPM_P2
2022/06/08 00:02:19;;;;;;;10.67;9.50;;;;;;;;;;5046701;28;20214;-67
2022/06/08 00:04:46;;;;;;;10.80;9.70;;;;;;;;;;5047695;28;20282;-67
2022/06/08 00:07:14;;;;;;;9.87;8.97;;;;;;;;;;5048487;28;20757;-67
2022/06/08 00:09:41;;;;;;;9.40;8.70;;;;;;;;;;5046204;28;20194;-66
2022/06/08 00:12:09;;;;;;;10.17;9.33;;;;;;;;;;5053961;28;20202;-66
2022/06/08 00:14:36;;;;;;;10.20;9.30;;;;;;;;;;5045410;28;20636;-67
2022/06/08 00:17:04;;;;;;;9.57;8.77;;;;;;;;;;5048217;28;20206;-67
2022/06/08 00:19:31;;;;;;;9.80;8.80;;;;;;;;;;5046018;28;20207;-66
2022/06/08 00:21:58;;;;;;;10.27;9.37;;;;;;;;;;5048510;28;20198;-67
2022/06/08 00:24:26;;;;;;;9.87;9.00;;;;;;;;;;5048339;28;20987;-67
2022/06/08 00:26:53;;;;;;;9.77;8.97;;;;;;;;;;5030401;28;20224;-67
2022/06/08 00:29:20;;;;;;;9.57;8.87;;;;;;;;;;5048785;28;20201;-67
2022/06/08 00:31:47;;;;;;;9.63;8.90;;;;;;;;;;5044646;28;20560;-67
2022/06/08 00:34:15;;;;;;;9.13;8.40;;;;;;;;;;5046911;28;20229;-67
2022/06/08 00:36:42;;;;;;;9.30;8.60;;;;;;;;;;5030742;28;20206;-68
2022/06/08 00:39:09;;;;;;;9.03;8.23;;;;;;;;;;5044971;28;20202;-67
2022/06/08 00:41:46;;;;;;;9.60;8.80;;;;;;;;;;5049092;28;20197;-67
2022/06/08 00:44:26;;;;;;;9.63;8.93;;;;;;;;;;5013841;28;20194;-66
2022/06/08 00:46:53;;;;;;;9.73;8.83;;;;;;;;;;5047201;28;20210;-66
2022/06/08 00:49:26;;;;;;;9.30;8.60;;;;;;;;;;5030197;28;20205;-67
2022/06/08 00:51:53;;;;;;;9.00;8.30;;;;;;;;;;5041342;28;20233;-67
2022/06/08 00:54:26;;;;;;;10.27;9.37;;;;;;;;;;5046939;28;20205;-67
2022/06/08 00:57:02;;;;;;;8.80;8.10;;;;;;;;;;5050206;28;20229;-68
2022/06/08 00:59:31;;;;;;;9.60;8.80;;;;;;;;;;5045247;28;20840;-68
2022/06/08 01:01:58;;;;;;;9.70;8.90;;;;;;;;;;5044812;28;20532;-67
2022/06/08 01:04:25;;;;;;;9.47;8.77;;;;;;;;;;5042677;28;20829;-67
2022/06/08 01:06:55;;;;;;;9.50;8.70;;;;;;;;;;5046888;28;20209;-66
2022/06/08 01:09:26;;;;;;;10.13;9.33;;;;;;;;;;5046703;28;20206;-67
2022/06/08 01:11:54;;;;;;;9.43;8.63;;;;;;;;;;5044769;28;20206;-67
2022/06/08 01:14:21;;;;;;;9.33;8.43;;;;;;;;;;5047580;28;20218;-67
2022/06/08 01:16:57;;;;;;;10.20;9.40;;;;;;;;;;5049800;28;20236;-67
2022/06/08 01:19:25;;;;;;;10.33;9.43;;;;;;;;;;5050432;28;20193;-67
2022/06/08 01:21:54;;;;;;;10.33;9.43;;;;;;;;;;5044549;28;20202;-67
2022/06/08 01:24:21;;;;;;;10.87;9.80;;;;;;;;;;5046774;28;20201;-67
2022/06/08 01:26:48;;;;;;;10.93;9.93;;;;;;;;;;5027028;28;20215;-67
2022/06/08 01:29:21;;;;;;;10.53;9.57;;;;;;;;;;5047392;28;20202;-67
2022/06/08 01:32:01;;;;;;;9.60;8.80;;;;;;;;;;5042476;28;20201;-68
2022/06/08 01:34:32;;;;;;;10.10;9.17;;;;;;;;;;5046529;28;20226;-68
2022/06/08 01:37:22;;;;;;;10.33;9.53;;;;;;;;;;5054221;28;20210;-68
2022/06/08 01:39:50;;;;;;;10.07;9.07;;;;;;;;;;5004181;28;20202;-68
2022/06/08 01:42:36;;;;;;;10.07;9.07;;;;;;;;;;5050298;28;20197;-67
2022/06/08 01:45:33;;;;;;;9.40;8.70;;;;;;;;;;5032870;28;20202;-68
2022/06/08 01:48:03;;;;;;;8.73;8.03;;;;;;;;;;5036574;28;20190;-68
2022/06/08 01:50:33;;;;;;;8.70;8.00;;;;;;;;;;5050073;28;20697;-68
2022/06/08 01:53:05;;;;;;;9.13;8.43;;;;;;;;;;5038975;28;20211;-68
2022/06/08 01:55:33;;;;;;;9.47;8.67;;;;;;;;;;5051327;28;20595;-68
2022/06/08 01:58:03;;;;;;;8.67;7.97;;;;;;;;;;5048298;28;20213;-67
2022/06/08 02:00:33;;;;;;;9.17;8.37;;;;;;;;;;5046440;28;20197;-68
2022/06/08 02:03:16;;;;;;;9.13;8.43;;;;;;;;;;5043484;28;20206;-67
2022/06/08 02:05:56;;;;;;;8.57;7.87;;;;;;;;;;5042952;28;20320;-68
2022/06/08 02:08:23;;;;;;;8.23;7.53;;;;;;;;;;5046260;28;20206;-68
2022/06/08 02:11:00;;;;;;;8.60;7.80;;;;;;;;;;5044868;28;20199;-68
2022/06/08 02:13:40;;;;;;;8.43;7.63;;;;;;;;;;5053056;28;20206;-68
2022/06/08 02:16:18;;;;;;;7.83;7.13;;;;;;;;;;5024455;28;20210;-68
2022/06/08 02:18:48;;;;;;;8.40;7.70;;;;;;;;;;5047792;28;20186;-68
2022/06/08 02:21:18;;;;;;;7.60;6.90;;;;;;;;;;5045403;28;20229;-68
2022/06/08 02:23:51;;;;;;;7.87;7.20;;;;;;;;;;5043152;28;20194;-68
2022/06/08 02:26:22;;;;;;;7.80;7.17;;;;;;;;;;5043452;28;20202;-68
2022/06/08 02:28:52;;;;;;;7.57;6.87;;;;;;;;;;5049979;28;20190;-68
2022/06/08 02:31:24;;;;;;;6.93;6.43;;;;;;;;;;5044856;28;20186;-68
2022/06/08 02:36:46;;;;;;;7.00;6.50;;;;;;;;;;5038920;28;20213;-68
2022/06/08 02:39:16;;;;;;;7.63;6.90;;;;;;;;;;5043208;28;20218;-67
2022/06/08 02:41:44;;;;;;;7.23;6.63;;;;;;;;;;5043674;28;20186;-68
2022/06/08 02:44:16;;;;;;;7.10;6.40;;;;;;;;;;5041814;28;20212;-68
2022/06/08 02:46:53;;;;;;;6.63;6.10;;;;;;;;;;5033082;28;20197;-67
2022/06/08 02:49:21;;;;;;;6.77;6.07;;;;;;;;;;5045520;28;20711;-68
2022/06/08 02:51:50;;;;;;;6.37;5.87;;;;;;;;;;5040793;28;20214;-67
2022/06/08 02:54:27;;;;;;;5.97;5.47;;;22.80;58.60;;;;;;5045517;28;20198;-67
2022/06/08 02:57:04;;;;;;;6.40;5.87;;;22.80;59.10;;;;;;5045093;28;20671;-66
2022/06/08 02:59:43;;;;;;;6.40;6.00;;;22.90;59.10;;;;;;5045339;28;20571;-67
2022/06/08 03:02:25;;;;;;;6.43;5.93;;;22.80;59.00;;;;;;5043614;28;20214;-66
2022/06/08 03:05:04;;;;;;;6.07;5.57;;;22.80;58.90;;;;;;5046240;28;20229;-66
2022/06/08 03:07:37;;;;;;;6.00;5.50;;;22.80;58.90;;;;;;5041120;28;20198;-67
2022/06/08 03:10:08;;;;;;;5.90;5.40;;;22.80;58.80;;;;;;5037889;28;20198;-67
2022/06/08 03:12:40;;;;;;;8.23;4.87;;;22.80;58.90;;;;;;5045664;28;20249;-66
2022/06/08 03:15:09;;;;;;;5.53;5.03;;;22.80;58.80;;;;;;5043547;28;20218;-66
2022/06/08 03:17:38;;;;;;;5.80;5.30;;;22.80;58.80;;;;;;5041026;28;20676;-67
2022/06/08 03:20:08;;;;;;;5.43;4.97;;;22.80;58.90;;;;;;5027082;28;20256;-67
2022/06/08 03:22:35;;;;;;;4.50;4.20;;;22.80;58.80;;;;;;5046838;28;20205;-66
2022/06/08 03:25:03;;;;;;;5.10;4.60;;;22.80;58.80;;;;;;5049318;28;20198;-66
2022/06/08 03:27:30;;;;;;;5.27;4.73;;;22.80;58.90;;;;;;5036742;28;20218;-66
2022/06/08 03:29:57;;;;;;;4.60;4.20;;;22.80;58.90;;;;;;5033163;28;20201;-66
2022/06/08 03:32:25;;;;;;;4.80;4.40;;;22.70;59.40;;;;;;5049287;28;20190;-66
2022/06/08 03:34:52;;;;;;;4.40;4.00;;;22.70;58.80;;;;;;5048040;28;20206;-66
2022/06/08 03:37:19;;;;;;;4.80;4.30;;;22.70;58.70;;;;;;5048318;28;20226;-66
2022/06/08 03:39:46;;;;;;;4.30;4.00;;;22.70;58.70;;;;;;5044883;28;20218;-66
2022/06/08 03:42:12;;;;;;;4.10;3.80;;;22.70;58.70;;;;;;5043939;28;20190;-66
2022/06/08 03:44:40;;;;;;;4.27;3.87;;;22.70;58.10;;;;;;5043565;28;20205;-65
2022/06/08 03:47:22;;;;;;;4.10;3.80;;;22.70;58.60;;;;;;5041542;28;20203;-66
2022/06/08 03:49:51;;;;;;;4.40;4.00;;;22.70;58.90;;;;;;5045489;28;20213;-68
2022/06/08 03:52:28;;;;;;;3.90;3.23;;;22.70;58.50;;;;;;5039685;28;20288;-66
2022/06/08 03:55:00;;;;;;;4.27;3.40;;;22.70;58.50;;;;;;5046100;28;20202;-67
2022/06/08 03:57:29;;;;;;;4.43;4.00;;;22.70;58.50;;;;;;5047253;28;20415;-66
2022/06/08 03:59:58;;;;;;;3.40;3.10;;;22.70;58.50;;;;;;5050450;28;20285;-66
2022/06/08 04:02:25;;;;;;;4.00;3.70;;;;;;;;;;5040879;28;20218;-65
2022/06/08 04:04:52;;;;;;;3.60;3.20;;;;;;;;;;5035575;28;20260;-65
2022/06/08 04:07:20;;;;;;;5.83;3.10;;;;;;;;;;5045207;28;20580;-65
2022/06/08 04:09:47;;;;;;;4.77;3.00;;;22.70;58.10;;;;;;5048204;28;20206;-65
2022/06/08 04:12:14;;;;;;;3.43;2.73;;;22.70;58.60;;;;;;5038978;28;20194;-67
2022/06/08 04:14:41;;;;;;;3.40;3.10;;;22.80;58.60;;;;;;5043930;28;20214;-65
2022/06/08 04:17:08;;;;;;;3.20;2.90;;;22.80;58.50;;;;;;5025506;28;20218;-66
2022/06/08 04:19:35;;;;;;;3.27;2.97;;;22.80;58.40;;;;;;5042526;28;20649;-67
2022/06/08 04:22:02;;;;;;;3.17;2.87;;;22.80;57.80;;;;;;5040654;28;20217;-66
2022/06/08 04:24:29;;;;;;;2.90;2.70;;;22.80;58.30;;;;;;5046191;28;20191;-65
2022/06/08 04:27:02;;;;;;;2.80;2.53;;;22.90;58.30;;;;;;5038442;28;20214;-64
2022/06/08 04:29:29;;;;;;;2.80;2.60;;;22.90;58.20;;;;;;5045559;28;20202;-64
2022/06/08 04:31:56;;;;;;;2.83;2.60;;;22.90;58.10;;;;;;5048046;28;20195;-65
2022/06/08 04:34:22;;;;;;;2.73;2.53;;;22.90;58.10;;;;;;5046873;28;20235;-66
2022/06/08 04:36:49;;;;;;;2.57;2.37;;;22.90;58.10;;;;;;5044845;28;20840;-66
2022/06/08 04:39:16;;;;;;;2.90;2.40;;;22.90;58.10;;;;;;5042265;28;20714;-65
2022/06/08 04:41:44;;;;;;;4.33;2.30;;;22.90;58.10;;;;;;5041149;28;20199;-66
2022/06/08 04:44:11;;;;;;;2.60;2.40;;;22.90;58.10;;;;;;5056526;28;20194;-66
2022/06/08 04:46:38;;;;;;;2.90;2.27;;;22.90;58.10;;;;;;5047721;28;20647;-67
2022/06/08 04:49:05;;;;;;;2.77;2.40;;;22.90;58.10;;;;;;5053747;28;20214;-67
2022/06/08 04:51:33;;;;;;;3.00;2.20;;;22.90;58.10;;;;;;5044347;28;20225;-63
2022/06/08 04:54:01;;;;;;;3.03;2.40;;;22.90;58.10;;;;;;5049218;28;20214;-63
2022/06/08 04:56:27;;;;;;;3.63;2.60;;;22.90;58.30;;;;;;5030853;28;20198;-63
2022/06/08 04:58:54;;;;;;;2.70;2.50;;;22.90;58.30;;;;;;5047621;28;20888;-63
2022/06/08 05:01:22;;;;;;;3.40;2.50;;;22.90;58.30;;;;;;5048497;28;20752;-66
2022/06/08 05:03:49;;;;;;;3.03;2.73;;;22.90;58.60;;;;;;5047222;28;20214;-67
2022/06/08 05:06:16;;;;;;;3.27;2.33;;;22.90;59.00;;;;;;5047013;28;20187;-68
2022/06/08 05:08:43;;;;;;;4.10;2.50;;;22.90;59.30;;;;;;5047075;28;20202;-68
2022/06/08 05:11:19;;;;;;;7.37;2.93;;;22.90;59.20;;;;;;5037974;28;20218;-67
2022/06/08 05:13:47;;;;;;;5.23;2.40;;;22.80;59.10;;;;;;5043593;28;20430;-68
2022/06/08 05:16:15;;;;;;;3.40;2.57;;;22.90;59.10;;;;;;5044204;28;20205;-68
2022/06/08 05:18:42;;;;;;;3.50;2.47;;;22.80;59.60;;;;;;5046537;28;20632;-68
2022/06/08 05:21:09;;;;;;;6.47;2.40;;;22.80;58.80;;;;;;5025887;28;20651;-66
2022/06/08 05:23:39;;;;;;;4.63;2.43;;;22.80;58.80;;;;;;5042048;28;20782;-66
2022/06/08 05:26:12;;;;;;;4.23;2.47;;;22.80;58.80;;;;;;5025853;28;20210;-67
2022/06/08 05:28:47;;;;;;;3.70;2.47;;;22.80;58.70;;;;;;5047711;28;20198;-66
2022/06/08 05:31:24;;;;;;;3.20;2.10;;;22.80;58.70;;;;;;5050094;28;20590;-66
2022/06/08 05:33:57;;;;;;;2.73;1.90;;;22.80;58.70;;;;;;5045272;28;20239;-66
2022/06/08 05:36:27;;;;;;;2.67;2.00;;;22.80;58.70;;;;;;5046348;28;20857;-66
2022/06/08 05:38:55;;;;;;;2.17;1.97;;;22.80;58.70;;;;;;5043709;28;20249;-67
2022/06/08 05:41:24;;;;;;;31.97;6.53;;;22.80;58.80;;;;;;5038974;28;20187;-66
2022/06/08 05:43:53;;;;;;;51.40;12.23;;;22.80;58.80;;;;;;5041648;28;20222;-66
2022/06/08 05:46:26;;;;;;;28.43;7.50;;;22.80;58.60;;;;;;5046362;28;20198;-66
2022/06/08 05:49:01;;;;;;;26.33;7.53;;;22.80;58.80;;;;;;5033541;28;20640;-65
2022/06/08 05:51:32;;;;;;;11.67;3.90;;;22.80;58.40;;;;;;5039138;28;20226;-66
2022/06/08 05:54:04;;;;;;;8.43;2.90;;;22.80;58.60;;;;;;5044777;28;20195;-66
2022/06/08 05:56:36;;;;;;;6.70;2.80;;;22.80;58.40;;;;;;5031242;28;20205;-65
2022/06/08 05:59:08;;;;;;;5.37;2.20;;;22.80;58.40;;;;;;5044018;28;20221;-65
2022/06/08 06:01:36;;;;;;;3.20;2.30;;;;;;;;;;5024626;28;20229;-66
2022/06/08 06:04:07;;;;;;;3.13;2.17;;;;;;;;;;5043662;28;20239;-66
2022/06/08 06:06:46;;;;;;;2.07;1.60;;;;;;;;;;5027950;28;20217;-65
2022/06/08 06:09:20;;;;;;;2.23;2.03;;;;;;;;;;5044609;28;20240;-65
2022/06/08 06:12:00;;;;;;;2.33;1.83;;;;;;;;;;5031321;28;20190;-65
2022/06/08 06:14:30;;;;;;;13.63;3.50;;;;;;;;;;5024984;28;20209;-66
2022/06/08 06:17:01;;;;;;;21.97;5.00;;;;;;;;;;5042692;28;20213;-67
2022/06/08 06:19:30;;;;;;;9.87;2.53;;;;;;;;;;5041184;28;20210;-68
2022/06/08 06:22:01;;;;;;;4.13;2.13;;;;;;;;;;5037302;28;20241;-64
2022/06/08 06:24:32;;;;;;;3.73;2.03;;;;;;;;;;5041963;28;20189;-65
2022/06/08 06:27:04;;;;;;;4.20;2.17;;;;;;;;;;5043466;28;20220;-65
2022/06/08 06:29:34;;;;;;;4.00;2.20;;;;;;;;;;5016687;28;20191;-65
2022/06/08 06:32:09;;;;;;;3.33;2.30;;;;;;;;;;5044136;28;20218;-64
2022/06/08 06:34:38;;;;;;;3.33;2.23;;;;;;;;;;5044537;28;20257;-64
2022/06/08 06:37:20;;;;;;;4.03;2.10;;;;;;;;;;5037880;28;20289;-66
2022/06/08 06:39:48;;;;;;;3.20;2.30;;;;;;;;;;5036140;28;20441;-66
2022/06/08 06:42:19;;;;;;;4.07;1.90;;;;;;;;;;5046451;28;20222;-65
2022/06/08 06:44:53;;;;;;;3.53;2.00;;;;;;;;;;5026943;28;20198;-65
2022/06/08 06:47:22;;;;;;;5.20;2.30;;;;;;;;;;5028791;28;20186;-65
2022/06/08 06:49:53;;;;;;;3.97;1.97;;;;;;;;;;5035168;28;20665;-64
2022/06/08 06:52:24;;;;;;;2.33;2.00;;;;;;;;;;5038702;28;20676;-65
2022/06/08 06:54:59;;;;;;;2.50;2.17;;;;;;;;;;5043770;28;20277;-65
2022/06/08 06:57:42;;;;;;;4.07;2.30;;;;;;;;;;5046092;28;20278;-64
2022/06/08 07:00:16;;;;;;;2.63;2.13;;;;;;;;;;5049790;28;20203;-66
2022/06/08 07:02:48;;;;;;;3.03;2.07;;;;;;;;;;5046364;28;20280;-66
2022/06/08 07:05:21;;;;;;;3.70;2.10;;;;;;;;;;5050066;28;20212;-65
2022/06/08 07:07:51;;;;;;;2.50;1.70;;;;;;;;;;5046430;28;20217;-65
2022/06/08 07:10:20;;;;;;;3.57;1.90;;;;;;;;;;5035957;28;20206;-66
2022/06/08 07:12:51;;;;;;;2.53;1.60;;;;;;;;;;5041304;28;20195;-67
2022/06/08 07:15:29;;;;;;;3.40;1.57;;;;;;;;;;5050494;28;20710;-65
2022/06/08 07:17:58;;;;;;;2.50;1.57;;;;;;;;;;5032216;28;20234;-65
2022/06/08 07:20:25;;;;;;;2.43;1.60;;;;;;;;;;5052348;28;20287;-66
2022/06/08 07:22:53;;;;;;;3.70;1.73;;;;;;;;;;5050376;28;20302;-66
2022/06/08 07:25:23;;;;;;;1.97;1.57;;;;;;;;;;5050285;28;20214;-66
2022/06/08 07:27:50;;;;;;;1.73;1.63;;;;;;;;;;5022378;28;20198;-66
2022/06/08 07:30:17;;;;;;;1.97;1.47;;;;;;;;;;5050796;28;20209;-65
2022/06/08 07:32:45;;;;;;;2.00;1.80;;;;;;;;;;5047833;28;20194;-65
2022/06/08 07:35:12;;;;;;;2.13;1.73;;;;;;;;;;5033068;28;20525;-65
2022/06/08 07:37:39;;;;;;;2.50;2.17;;;;;;;;;;5042636;28;20198;-65
2022/06/08 07:40:07;;;;;;;4.23;2.30;;;;;;;;;;5051297;28;20442;-66
2022/06/08 07:42:37;;;;;;;5.03;2.40;;;;;;;;;;5048570;28;20619;-66
2022/06/08 07:45:08;;;;;;;2.43;2.00;;;;;;;;;;5052977;28;20206;-66
2022/06/08 07:49:36;;;;;;;3.07;1.90;;;;;;;;;;5035609;28;20207;-66
2022/06/08 07:50:23;;;;;;;2.87;1.87;;;;;;;;;;5033155;28;20671;-66
2022/06/08 07:52:50;;;;;;;4.23;2.10;;;;;;;;;;5041080;28;20198;-66
2022/06/08 07:55:17;;;;;;;5.20;2.20;;;;;;;;;;5051039;28;20198;-65
2022/06/08 07:57:47;;;;;;;3.03;2.13;;;;;;;;;;5048213;28;20199;-65
2022/06/08 08:00:15;;;;;;;3.20;2.00;;;;;;;;;;5045558;28;20195;-66
2022/06/08 08:02:43;;;;;;;3.10;2.17;;;;;;;;;;5045312;28;20213;-66
2022/06/08 08:05:11;;;;;;;4.50;2.20;;;;;;;;;;5049347;28;20631;-66
2022/06/08 08:07:40;;;;;;;3.37;2.50;;;;;;;;;;5035845;28;20190;-66
2022/06/08 08:10:10;;;;;;;5.17;2.20;;;;;;;;;;5029554;28;20214;-66
2022/06/08 08:12:37;;;;;;;4.67;2.40;;;;;;;;;;5048126;28;20203;-66
2022/06/08 08:15:05;;;;;;;7.53;2.97;;;;;;;;;;5028153;28;20623;-66
2022/06/08 08:17:33;;;;;;;3.07;2.03;;;;;;;;;;5045495;28;20191;-66
2022/06/08 08:20:00;;;;;;;3.30;1.90;;;;;;;;;;5050061;28;20217;-66
2022/06/08 08:22:28;;;;;;;5.67;2.20;;;;;;;;;;5039780;28;20608;-67
2022/06/08 08:24:55;;;;;;;5.20;2.30;;;;;;;;;;5046671;28;20217;-67
2022/06/08 08:27:23;;;;;;;4.20;2.03;;;;;;;;;;5043420;28;20198;-66
2022/06/08 08:29:51;;;;;;;4.90;2.07;;;;;;;;;;5042298;28;20205;-66
2022/06/08 08:32:18;;;;;;;4.97;2.33;;;;;;;;;;5047148;28;20217;-65
2022/06/08 08:34:45;;;;;;;4.57;2.30;;;;;;;;;;5047169;28;20234;-65
2022/06/08 08:37:12;;;;;;;5.17;2.27;;;;;;;;;;5048988;28;20548;-67
2022/06/08 08:39:40;;;;;;;2.97;1.80;;;;;;;;;;5040704;28;20238;-66
2022/06/08 08:42:22;;;;;;;6.60;2.30;;;;;;;;;;5046130;28;20205;-67
2022/06/08 08:45:01;;;;;;;5.13;2.30;;;;;;;;;;5047689;28;20194;-67
2022/06/08 08:47:40;;;;;;;4.80;2.20;;;;;;;;;;5047748;28;20589;-65
2022/06/08 08:50:11;;;;;;;10.13;2.17;;;;;;;;;;5040224;28;20691;-65
2022/06/08 08:52:41;;;;;;;4.10;2.27;;;;;;;;;;5049611;28;20201;-65
2022/06/08 08:55:11;;;;;;;11.10;2.67;;;;;;;;;;5044643;28;20204;-65
2022/06/08 08:57:44;;;;;;;4.93;2.33;;;;;;;;;;5044112;28;20191;-65
2022/06/08 09:00:41;;;;;;;4.73;2.10;;;;;;;;;;5016460;28;20234;-65
2022/06/08 09:03:29;;;;;;;4.63;1.90;;;;;;;;;;5041663;28;20244;-65
2022/06/08 09:06:23;;;;;;;4.77;2.40;;;;;;;;;;5052066;28;20641;-66
2022/06/08 09:09:00;;;;;;;4.30;2.40;;;;;;;;;;5050460;28;20217;-66
2022/06/08 09:11:31;;;;;;;7.27;2.33;;;;;;;;;;5047616;28;20226;-65
2022/06/08 09:14:12;;;;;;;5.53;2.23;;;;;;;;;;5018985;28;20202;-65
2022/06/08 09:16:43;;;;;;;5.07;1.97;;;;;;;;;;5047444;28;20373;-65
2022/06/08 09:19:24;;;;;;;6.40;2.20;;;;;;;;;;5032914;28;20206;-65
2022/06/08 09:22:19;;;;;;;4.00;2.20;;;;;;;;;;5045507;28;20588;-65
2022/06/08 09:24:55;;;;;;;3.20;1.57;;;;;;;;;;5041666;28;20659;-65
2022/06/08 09:27:33;;;;;;;5.10;1.90;;;;;;;;;;5043315;28;20226;-66
2022/06/08 09:30:15;;;;;;;4.03;1.50;;;;;;;;;;5046302;28;20207;-66
2022/06/08 09:32:49;;;;;;;9.93;1.87;;;;;;;;;;5040279;28;20272;-65
2022/06/08 09:35:20;;;;;;;3.23;1.60;;;;;;;;;;5039395;28;20286;-65
2022/06/08 09:37:52;;;;;;;3.03;1.50;;;;;;;;;;5041233;28;20229;-65
2022/06/08 09:40:37;;;;;;;6.23;1.90;;;;;;;;;;5029086;28;20560;-65
2022/06/08 09:43:13;;;;;;;5.73;1.50;;;;;;;;;;5039502;28;20195;-65
2022/06/08 09:46:01;;;;;;;4.37;1.57;;;;;;;;;;5024567;28;20217;-65
2022/06/08 09:51:50;;;;;;;4.00;1.77;;;;;;;;;;5038660;28;20206;-66
2022/06/08 09:54:30;;;;;;;3.43;1.90;;;;;;;;;;5051485;28;20220;-66
2022/06/08 09:57:20;;;;;;;3.87;1.70;;;;;;;;;;5029667;28;20224;-65
2022/06/08 10:00:02;;;;;;;3.07;1.87;;;;;;;;;;5035485;28;20223;-65
2022/06/08 10:02:51;;;;;;;3.10;1.70;;;;;;;;;;5042648;28;20221;-65
2022/06/08 10:05:41;;;;;;;5.93;2.00;;;;;;;;;;5041210;28;20236;-65
2022/06/08 10:08:25;;;;;;;3.50;1.63;;;;;;;;;;5048608;28;20251;-65
2022/06/08 10:10:59;;;;;;;5.57;1.53;;;;;;;;;;5043550;28;20209;-65
2022/06/08 10:13:43;;;;;;;4.83;1.93;;;;;;;;;;5042920;28;20674;-65
2022/06/08 10:16:18;;;;;;;3.67;1.80;;;;;;;;;;5027609;28;20206;-65
2022/06/08 10:18:54;;;;;;;4.30;1.70;;;;;;;;;;5026521;28;20221;-65
2022/06/08 10:21:26;;;;;;;5.03;1.80;;;;;;;;;;5041292;28;20549;-65
2022/06/08 10:24:22;;;;;;;4.07;1.87;;;;;;;;;;5038957;28;20198;-65
2022/06/08 10:26:57;;;;;;;4.57;2.17;;;;;;;;;;5027164;28;20229;-66
2022/06/08 10:29:43;;;;;;;3.53;1.83;;;;;;;;;;5041206;28;20213;-66
2022/06/08 10:32:14;;;;;;;4.97;1.70;;;;;;;;;;5027744;28;20210;-66
2022/06/08 10:34:52;;;;;;;4.73;2.10;;;;;;;;;;5042638;28;20242;-66
2022/06/08 10:37:39;;;;;;;6.50;2.27;;;;;;;;;;5047448;28;20249;-65
2022/06/08 10:40:37;;;;;;;4.93;1.80;;;;;;;;;;5044410;28;20226;-65
2022/06/08 10:43:04;;;;;;;6.67;2.00;;;;;;;;;;5050628;28;20225;-65
2022/06/08 10:45:35;;;;;;;5.33;1.80;;;;;;;;;;5045916;28;20209;-65
2022/06/08 10:48:11;;;;;;;4.43;1.70;;;;;;;;;;5054737;28;20195;-65
2022/06/08 10:50:40;;;;;;;4.77;1.93;;;;;;;;;;5039942;28;20213;-65
2022/06/08 10:56:27;;;;;;;4.33;1.97;;;;;;;;;;5038745;28;20190;-64
2022/06/08 10:59:04;;;;;;;4.67;2.10;;;;;;;;;;5037966;28;20595;-64
2022/06/08 11:01:38;;;;;;;6.27;2.07;;;;;;;;;;5044066;28;20201;-64
2022/06/08 11:04:07;;;;;;;5.47;1.80;;;;;;;;;;5043971;28;20190;-64
2022/06/08 11:06:44;;;;;;;6.00;2.30;;;;;;;;;;5042739;28;20205;-65
2022/06/08 11:09:22;;;;;;;3.37;1.80;;;;;;;;;;5045917;28;20217;-65
2022/06/08 11:12:00;;;;;;;4.50;1.63;;;;;;;;;;5030668;28;20213;-65
2022/06/08 11:14:33;;;;;;;4.83;2.20;;;;;;;;;;5042773;28;20214;-65
2022/06/08 11:17:03;;;;;;;3.30;1.40;;;;;;;;;;5041715;28;20198;-65
2022/06/08 11:19:32;;;;;;;3.57;1.73;;;;;;;;;;5041697;28;20218;-65
2022/06/08 11:22:04;;;;;;;5.90;1.90;;;;;;;;;;5026554;28;20198;-63
2022/06/08 11:24:46;;;;;;;6.10;1.97;;;;;;;;;;5042125;28;20640;-63
2022/06/08 11:27:36;;;;;;;4.27;1.70;;;;;;;;;;5017662;28;20278;-65
2022/06/08 11:30:25;;;;;;;3.70;1.80;;;;;;;;;;5040393;28;20291;-65
2022/06/08 11:32:58;;;;;;;4.83;1.67;;;;;;;;;;5045627;28;20210;-64
2022/06/08 11:35:33;;;;;;;4.87;1.60;;;;;;;;;;5045389;28;21727;-63
2022/06/08 11:38:21;;;;;;;4.13;1.67;;;;;;;;;;5038412;28;20218;-63
2022/06/08 11:40:51;;;;;;;5.60;1.80;;;;;;;;;;5041425;28;20214;-62
2022/06/08 11:43:34;;;;;;;2.83;1.50;;;;;;;;;;5039997;28;20187;-62
2022/06/08 11:46:08;;;;;;;6.37;1.97;;;;;;;;;;5046638;28;20194;-64
2022/06/08 11:48:49;;;;;;;3.23;1.17;;;;;;;;;;5045262;28;20282;-64
2022/06/08 11:51:32;;;;;;;5.67;2.40;;;;;;;;;;5044038;28;20570;-64
2022/06/08 11:54:25;;;;;;;4.93;2.00;;;;;;;;;;5044498;28;20194;-64
2022/06/08 11:57:04;;;;;;;4.80;1.90;;;;;;;;;;5046447;28;20690;-64
2022/06/08 11:59:38;;;;;;;5.87;1.50;;;;;;;;;;5045689;28;20245;-63
2022/06/08 12:02:22;;;;;;;3.37;1.20;;;;;;;;;;5047163;28;20210;-64
2022/06/08 12:04:57;;;;;;;3.57;1.53;;;;;;;;;;5033673;28;20194;-64
2022/06/08 12:07:45;;;;;;;4.07;1.60;;;;;;;;;;5044049;28;20194;-65
2022/06/08 12:10:17;;;;;;;5.07;1.30;;;;;;;;;;5045363;28;20183;-64
2022/06/08 12:12:48;;;;;;;3.43;1.53;;;;;;;;;;5033338;28;20190;-64
2022/06/08 12:15:36;;;;;;;3.60;1.53;;;;;;;;;;5043931;28;20214;-64
2022/06/08 12:18:10;;;;;;;4.57;1.70;;;;;;;;;;5042820;28;20210;-64
2022/06/08 12:20:40;;;;;;;3.27;1.57;;;;;;;;;;5029437;28;20659;-62
2022/06/08 12:23:09;;;;;;;4.50;1.70;;;;;;;;;;5040738;28;20189;-62
2022/06/08 12:25:39;;;;;;;4.43;1.70;;;;;;;;;;5034419;28;20206;-61
2022/06/08 12:28:18;;;;;;;2.50;1.37;;;;;;;;;;5047438;28;20236;-62
2022/06/08 12:30:48;;;;;;;3.23;1.40;;;;;;;;;;5045735;28;20328;-62
2022/06/08 12:33:18;;;;;;;3.17;1.40;;;;;;;;;;5045550;28;20242;-62
2022/06/08 12:35:57;;;;;;;3.43;1.53;;;;;;;;;;5037276;28;20198;-62
2022/06/08 12:38:26;;;;;;;3.10;1.57;;;;;;;;;;5031952;28;20695;-62
2022/06/08 12:40:56;;;;;;;3.67;1.60;;;;;;;;;;5061386;28;20234;-62
2022/06/08 12:43:34;;;;;;;3.43;1.53;;;;;;;;;;5059921;28;20247;-62
2022/06/08 12:46:22;;;;;;;3.20;1.47;;;;;;;;;;5043357;28;20190;-61
2022/06/08 12:48:58;;;;;;;4.40;1.63;;;;;;;;;;5056814;28;20254;-62
2022/06/08 12:51:37;;;;;;;4.13;1.60;;;;;;;;;;5042437;28;20218;-65
2022/06/08 12:54:12;;;;;;;4.10;1.70;;;;;;;;;;5049302;28;20344;-65
2022/06/08 12:56:44;;;;;;;3.87;1.83;;;;;;;;;;5033837;28;20198;-65
2022/06/08 12:59:14;;;;;;;5.87;1.90;;;;;;;;;;5051486;28;20191;-64
2022/06/08 13:02:02;;;;;;;3.03;1.73;;;;;;;;;;5045080;28;20218;-65
2022/06/08 13:04:33;;;;;;;2.40;1.40;;;;;;;;;;5040940;28;20776;-65
2022/06/08 13:07:01;;;;;;;4.60;1.63;;;;;;;;;;5051556;28;20203;-60
2022/06/08 13:09:28;;;;;;;3.27;1.50;;;;;;;;;;5037906;28;20203;-61
2022/06/08 13:12:04;;;;;;;4.63;1.57;;;;;;;;;;5043767;28;20203;-60
2022/06/08 13:14:37;;;;;;;4.43;1.60;;;;;;;;;;5037995;28;20207;-60
2022/06/08 13:17:05;;;;;;;2.13;1.30;;;;;;;;;;5039859;28;20947;-61
2022/06/08 13:19:38;;;;;;;5.23;1.90;;;;;;;;;;5044060;28;20222;-60
2022/06/08 13:22:11;;;;;;;3.87;1.67;;;;;;;;;;5031810;28;20202;-63
2022/06/08 13:24:41;;;;;;;2.40;1.50;;;;;;;;;;5049259;28;20199;-63
2022/06/08 13:27:13;;;;;;;4.03;1.80;;;;;;;;;;5037369;28;20206;-63
2022/06/08 13:29:42;;;;;;;3.23;1.60;;;;;;;;;;5038879;28;20197;-64
2022/06/08 13:32:18;;;;;;;2.40;1.17;;;;;;;;;;5046292;28;20225;-63
2022/06/08 13:35:02;;;;;;;3.57;1.67;;;;;;;;;;5028990;28;20372;-63
2022/06/08 13:37:45;;;;;;;2.17;1.30;;;;;;;;;;5040619;28;20279;-62
2022/06/08 13:40:18;;;;;;;4.53;1.70;;;;;;;;;;5047612;28;20226;-61
2022/06/08 13:42:46;;;;;;;2.23;1.73;;;;;;;;;;5040931;28;20689;-61
2022/06/08 13:45:23;;;;;;;3.00;1.50;;;;;;;;;;5042725;28;20198;-61
2022/06/08 13:47:57;;;;;;;4.03;2.00;;;;;;;;;;5045169;28;20202;-62
2022/06/08 13:50:28;;;;;;;3.13;1.57;;;;;;;;;;5039005;28;20206;-64
2022/06/08 13:53:01;;;;;;;4.47;1.73;;;;;;;;;;5043079;28;20284;-64
2022/06/08 13:55:33;;;;;;;3.33;1.77;;;;;;;;;;5025865;28;20186;-62
2022/06/08 13:58:03;;;;;;;2.30;1.47;;;;;;;;;;5027088;28;20241;-62
2022/06/08 14:00:33;;;;;;;4.47;1.90;;;;;;;;;;5028208;28;20222;-62
2022/06/08 14:03:03;;;;;;;2.00;1.47;;;;;;;;;;5037218;28;20214;-61
2022/06/08 14:13:53;;;;;;;2.50;1.40;;;;;;;;;;5044702;28;22622;-62
2022/06/08 14:16:21;;;;;;;2.57;1.60;;;;;;;;;;5045779;28;20202;-62
2022/06/08 14:18:50;;;;;;;6.70;1.73;;;;;;;;;;5043600;28;20225;-62
2022/06/08 14:21:18;;;;;;;2.23;1.43;;;;;;;;;;5044896;28;20328;-64
2022/06/08 14:23:46;;;;;;;1.83;1.37;;;;;;;;;;5040496;28;20193;-64
2022/06/08 14:26:15;;;;;;;2.00;1.30;;;;;;;;;;5024839;28;20214;-62
2022/06/08 14:28:52;;;;;;;2.67;1.50;;;;;;;;;;5043433;28;20254;-62
2022/06/08 14:31:25;;;;;;;2.13;1.37;;;;;;;;;;5041607;28;20210;-64
2022/06/08 14:33:58;;;;;;;2.20;1.40;;;;;;;;;;5046440;28;20726;-65
2022/06/08 14:36:27;;;;;;;1.80;1.37;;;;;;;;;;5045047;28;20280;-64
2022/06/08 14:39:16;;;;;;;3.20;1.47;;;;;;;;;;5038040;28;20210;-64
2022/06/08 14:41:47;;;;;;;1.60;1.20;;;;;;;;;;5040698;28;20621;-64
2022/06/08 14:44:20;;;;;;;2.60;1.40;;;;;;;;;;5045127;28;20270;-64
2022/06/08 14:47:01;;;;;;;3.03;1.33;;;;;;;;;;5044026;28;20190;-64
2022/06/08 14:49:31;;;;;;;2.37;1.50;;;;;;;;;;5045204;28;20203;-64
2022/06/08 14:51:59;;;;;;;2.63;1.20;;;22.20;62.00;;;;;;5025636;28;20640;-62
2022/06/08 14:54:35;;;;;;;1.80;1.13;;;22.30;62.60;;;;;;5029601;28;20282;-62
2022/06/08 14:57:31;;;;;;;3.10;1.50;;;22.30;62.80;;;;;;5023951;28;20195;-65
2022/06/08 15:00:03;;;;;;;1.30;1.10;;;22.30;62.90;;;;;;5003122;28;20308;-65
2022/06/08 15:02:33;;;;;;;5.37;1.17;;;22.30;63.40;;;;;;5022296;28;20737;-65
2022/06/08 15:05:09;;;;;;;2.23;0.97;;;22.30;63.50;;;;;;5029990;28;20199;-64